Naven, Sweden

3:51 AM CEST on August 24, 2016 (GMT +0200)
Söne Enebacken | | Change Station

Elev 183 ft 58.53 °N, 12.98 °E | Updated 2 minutes ago

Overcast
Overcast
55.9 °F
Feels Like 55.9 °F
N
0.6
Wind Variable Wind from West
Gusts 1.2 mph

Today
High -- | Low -- °F
--% Chance of Precip.
Yesterday
High -- | Low -- °F
Precip. -- in
Pressure 30.27 in
Visibility 6.2 miles
Clouds Overcast 1200 ft
Dew Point 54 °F
Humidity 95%
Rainfall 0.00 in
Snow Depth Not available.
5:48 AM 8:29 PM
Waning Gibbous, 62% visible
METAR ESIB 240120Z AUTO 20004KT 9999 OVC012/// 14/14 Q1025
Pressure 30.27 in
Visibility 6.2 miles
Clouds Overcast 1200 ft
Dew Point 54 °F
Humidity 95%
Rainfall 0.00 in
Snow Depth Not available.
5:48 AM 8:29 PM
Waning Gibbous, 62% visible
METAR ESIB 240120Z AUTO 20004KT 9999 OVC012/// 14/14 Q1025

10-Day Weather Forecast

×

Almanac

Astronomy

Aug. 24, 2016 Rise Set
Actual Time
Civil Twilight
Nautical Twilight
Astronomical Twilight
Moon
Length of Visible Light
Length of Day
Tomorrow will be .
, % of the Moon is Illuminated

Today's Extremes

Country Highs Country Lows

Community

WunderPhotos

Upload Photos

1,934,520 photos uploaded!

WunderBlog® & News

Nearby

Air Quality

  Air Quality AQ Index Pollutant
Not available.

Snow Depth

Station Depth Elevation

Earthquake Activity

City Distance Mag. Time & Date
Minimum magnitude displayed is 2.5.

Coastal Water Temperatures

Place Temperature

Stations

Nearby Weather Stations

Station Location Temp. Windchill Dew Point Humidity Wind Precip. Elev Updated Type